sensor_id;sensor_type;location;lat;lon;timestamp;pressure;altitude;pressure_sealevel;temperature;humidity
79129;BME280;68529;43.286;23.360;2023-07-16T00:00:28;99277.78;;;26.10;61.85
79129;BME280;68529;43.286;23.360;2023-07-16T00:02:54;99267.84;;;26.10;62.08
79129;BME280;68529;43.286;23.360;2023-07-16T00:05:19;99260.88;;;26.17;61.75
79129;BME280;68529;43.286;23.360;2023-07-16T00:07:45;99263.41;;;26.19;61.89
79129;BME280;68529;43.286;23.360;2023-07-16T00:10:10;99253.66;;;26.18;62.09
79129;BME280;68529;43.286;23.360;2023-07-16T00:12:36;99252.81;;;26.17;61.94
79129;BME280;68529;43.286;23.360;2023-07-16T00:15:01;99257.22;;;26.18;61.99
79129;BME280;68529;43.286;23.360;2023-07-16T00:17:26;99253.97;;;26.15;62.05
79129;BME280;68529;43.286;23.360;2023-07-16T00:19:52;99244.91;;;26.06;62.19
79129;BME280;68529;43.286;23.360;2023-07-16T00:22:17;99249.44;;;26.05;62.25
79129;BME280;68529;43.286;23.360;2023-07-16T00:24:42;99254.44;;;26.00;62.01
79129;BME280;68529;43.286;23.360;2023-07-16T00:27:08;99255.03;;;25.94;62.48
79129;BME280;68529;43.286;23.360;2023-07-16T00:29:33;99252.19;;;25.96;62.24
79129;BME280;68529;43.286;23.360;2023-07-16T00:31:59;99266.25;;;25.90;62.35
79129;BME280;68529;43.286;23.360;2023-07-16T00:34:24;99256.38;;;25.81;62.20
79129;BME280;68529;43.286;23.360;2023-07-16T00:36:50;99254.66;;;25.80;62.37
79129;BME280;68529;43.286;23.360;2023-07-16T00:39:15;99251.00;;;25.81;62.67
79129;BME280;68529;43.286;23.360;2023-07-16T00:41:41;99261.75;;;25.81;62.42
79129;BME280;68529;43.286;23.360;2023-07-16T00:44:07;99261.75;;;25.81;62.39
79129;BME280;68529;43.286;23.360;2023-07-16T00:46:32;99259.34;;;25.78;62.59
79129;BME280;68529;43.286;23.360;2023-07-16T00:48:58;99251.00;;;25.81;62.44
79129;BME280;68529;43.286;23.360;2023-07-16T00:51:25;99254.81;;;25.78;62.54
79129;BME280;68529;43.286;23.360;2023-07-16T00:53:51;99246.88;;;25.77;62.25
79129;BME280;68529;43.286;23.360;2023-07-16T00:56:17;99253.56;;;25.73;62.74
79129;BME280;68529;43.286;23.360;2023-07-16T00:58:43;99254.56;;;25.72;62.47
79129;BME280;68529;43.286;23.360;2023-07-16T01:01:08;99253.88;;;25.70;62.53
79129;BME280;68529;43.286;23.360;2023-07-16T01:03:34;99254.03;;;25.68;62.67
79129;BME280;68529;43.286;23.360;2023-07-16T01:06:15;99254.03;;;25.68;62.55
79129;BME280;68529;43.286;23.360;2023-07-16T01:08:54;99253.03;;;25.69;62.33
79129;BME280;68529;43.286;23.360;2023-07-16T01:11:21;99256.84;;;25.67;62.70
79129;BME280;68529;43.286;23.360;2023-07-16T01:13:47;99242.72;;;25.65;62.67
79129;BME280;68529;43.286;23.360;2023-07-16T01:16:24;99255.75;;;25.60;62.57
79129;BME280;68529;43.286;23.360;2023-07-16T01:18:51;99248.28;;;25.54;62.51
79129;BME280;68529;43.286;23.360;2023-07-16T01:21:18;99247.72;;;25.50;62.71
79129;BME280;68529;43.286;23.360;2023-07-16T01:23:54;99246.00;;;25.49;62.43
79129;BME280;68529;43.286;23.360;2023-07-16T01:29:33;99236.81;;;25.52;62.48
79129;BME280;68529;43.286;23.360;2023-07-16T01:32:03;99233.81;;;25.55;62.28
79129;BME280;68529;43.286;23.360;2023-07-16T01:34:31;99235.13;;;25.51;62.32
79129;BME280;68529;43.286;23.360;2023-07-16T01:37:02;99241.59;;;25.58;62.61
79129;BME280;68529;43.286;23.360;2023-07-16T01:39:28;99238.59;;;25.61;62.33
79129;BME280;68529;43.286;23.360;2023-07-16T01:41:54;99238.78;;;25.59;62.17
79129;BME280;68529;43.286;23.360;2023-07-16T01:44:20;99229.75;;;25.51;62.56
79129;BME280;68529;43.286;23.360;2023-07-16T01:47:03;99238.34;;;25.44;62.61
79129;BME280;68529;43.286;23.360;2023-07-16T01:49:30;99230.88;;;25.38;62.77
79129;BME280;68529;43.286;23.360;2023-07-16T01:51:56;99232.16;;;25.34;62.57
79129;BME280;68529;43.286;23.360;2023-07-16T01:54:21;99224.94;;;25.35;62.75
79129;BME280;68529;43.286;23.360;2023-07-16T01:56:46;99235.56;;;25.36;62.58
79129;BME280;68529;43.286;23.360;2023-07-16T01:59:12;99232.47;;;25.31;62.88
79129;BME280;68529;43.286;23.360;2023-07-16T02:01:37;99228.75;;;25.32;62.65
79129;BME280;68529;43.286;23.360;2023-07-16T02:04:03;99225.94;;;25.34;63.03
79129;BME280;68529;43.286;23.360;2023-07-16T02:06:28;99218.84;;;25.33;63.05
79129;BME280;68529;43.286;23.360;2023-07-16T02:08:54;99228.75;;;25.32;63.05
79129;BME280;68529;43.286;23.360;2023-07-16T02:11:19;99226.22;;;25.31;62.82
79129;BME280;68529;43.286;23.360;2023-07-16T02:13:45;99222.28;;;25.25;63.18
79129;BME280;68529;43.286;23.360;2023-07-16T02:16:10;99220.56;;;25.24;63.10
79129;BME280;68529;43.286;23.360;2023-07-16T02:18:35;99221.03;;;25.20;63.23
79129;BME280;68529;43.286;23.360;2023-07-16T02:21:01;99214.94;;;25.18;63.01
79129;BME280;68529;43.286;23.360;2023-07-16T02:23:27;99230.81;;;25.11;63.22
79129;BME280;68529;43.286;23.360;2023-07-16T02:25:53;99228.69;;;25.05;63.35
79129;BME280;68529;43.286;23.360;2023-07-16T02:28:18;99227.00;;;25.04;63.52
79129;BME280;68529;43.286;23.360;2023-07-16T02:30:43;99230.81;;;25.02;63.47
79129;BME280;68529;43.286;23.360;2023-07-16T02:33:09;99229.69;;;24.95;63.54
79129;BME280;68529;43.286;23.360;2023-07-16T02:35:34;99228.00;;;24.94;63.47
79129;BME280;68529;43.286;23.360;2023-07-16T02:38:00;99235.94;;;24.95;63.53
79129;BME280;68529;43.286;23.360;2023-07-16T02:40:25;99236.63;;;24.97;63.46
79129;BME280;68529;43.286;23.360;2023-07-16T02:42:50;99240.44;;;24.95;63.44
79129;BME280;68529;43.286;23.360;2023-07-16T02:45:16;99239.59;;;24.94;63.50
79129;BME280;68529;43.286;23.360;2023-07-16T02:47:41;99237.47;;;24.98;63.43
79129;BME280;68529;43.286;23.360;2023-07-16T02:50:07;99241.16;;;24.97;63.59
79129;BME280;68529;43.286;23.360;2023-07-16T02:52:32;99239.47;;;24.96;63.57
79129;BME280;68529;43.286;23.360;2023-07-16T02:54:58;99237.19;;;25.01;63.20
79129;BME280;68529;43.286;23.360;2023-07-16T02:57:23;99242.69;;;24.99;63.28
79129;BME280;68529;43.286;23.360;2023-07-16T02:59:49;99239.72;;;25.02;63.48
79129;BME280;68529;43.286;23.360;2023-07-16T03:02:14;99249.50;;;25.03;63.65
79129;BME280;68529;43.286;23.360;2023-07-16T03:04:39;99250.88;;;25.07;63.52
79129;BME280;68529;43.286;23.360;2023-07-16T03:07:05;99252.88;;;25.05;63.53
79129;BME280;68529;43.286;23.360;2023-07-16T03:09:30;99255.16;;;25.10;63.45
79129;BME280;68529;43.286;23.360;2023-07-16T03:11:56;99256.59;;;25.04;63.49
79129;BME280;68529;43.286;23.360;2023-07-16T03:14:21;99262.78;;;25.05;63.21
79129;BME280;68529;43.286;23.360;2023-07-16T03:16:46;99250.34;;;25.04;63.13
79129;BME280;68529;43.286;23.360;2023-07-16T03:19:12;99251.50;;;25.01;63.28
79129;BME280;68529;43.286;23.360;2023-07-16T03:21:37;99259.69;;;25.00;63.30
79129;BME280;68529;43.286;23.360;2023-07-16T03:24:03;99251.03;;;24.96;63.26
79129;BME280;68529;43.286;23.360;2023-07-16T03:26:29;99255.72;;;24.94;63.39
79129;BME280;68529;43.286;23.360;2023-07-16T03:28:54;99254.00;;;24.93;63.56
79129;BME280;68529;43.286;23.360;2023-07-16T03:31:20;99254.00;;;24.93;63.53
79129;BME280;68529;43.286;23.360;2023-07-16T03:33:45;99258.56;;;24.93;63.41
79129;BME280;68529;43.286;23.360;2023-07-16T03:36:11;99272.13;;;25.01;63.41
79129;BME280;68529;43.286;23.360;2023-07-16T03:38:36;99266.59;;;25.02;63.33
79129;BME280;68529;43.286;23.360;2023-07-16T03:41:02;99263.06;;;25.02;63.32
79129;BME280;68529;43.286;23.360;2023-07-16T03:43:27;99266.75;;;24.91;63.58
79129;BME280;68529;43.286;23.360;2023-07-16T03:45:55;99270.13;;;24.93;63.48
79129;BME280;68529;43.286;23.360;2023-07-16T03:48:21;99274.94;;;24.99;63.86
79129;BME280;68529;43.286;23.360;2023-07-16T03:50:47;99271.13;;;25.02;63.66
79129;BME280;68529;43.286;23.360;2023-07-16T03:53:13;99273.81;;;25.02;63.70
79129;BME280;68529;43.286;23.360;2023-07-16T03:55:38;99272.56;;;25.06;63.26
79129;BME280;68529;43.286;23.360;2023-07-16T03:58:03;99276.66;;;25.00;63.27
79129;BME280;68529;43.286;23.360;2023-07-16T04:00:29;99276.94;;;24.97;63.67
79129;BME280;68529;43.286;23.360;2023-07-16T04:02:54;99280.31;;;24.99;63.57
79129;BME280;68529;43.286;23.360;2023-07-16T04:05:20;99280.47;;;25.07;63.60
79129;BME280;68529;43.286;23.360;2023-07-16T04:07:45;99284.28;;;25.14;63.55
79129;BME280;68529;43.286;23.360;2023-07-16T04:10:10;99276.50;;;25.21;63.38
79129;BME280;68529;43.286;23.360;2023-07-16T04:12:36;99276.75;;;25.27;63.37
79129;BME280;68529;43.286;23.360;2023-07-16T04:15:07;99276.75;;;25.27;63.30
79129;BME280;68529;43.286;23.360;2023-07-16T04:17:33;99278.19;;;25.31;63.42
79129;BME280;68529;43.286;23.360;2023-07-16T04:19:58;99272.91;;;25.39;63.32
79129;BME280;68529;43.286;23.360;2023-07-16T04:22:23;99271.31;;;25.46;63.18
79129;BME280;68529;43.286;23.360;2023-07-16T04:24:49;99281.41;;;25.54;62.60
79129;BME280;68529;43.286;23.360;2023-07-16T04:27:14;99284.22;;;25.62;62.66
79129;BME280;68529;43.286;23.360;2023-07-16T04:29:40;99278.94;;;25.70;62.66
79129;BME280;68529;43.286;23.360;2023-07-16T04:32:05;99286.97;;;25.80;62.43
79129;BME280;68529;43.286;23.360;2023-07-16T04:34:31;99287.09;;;25.88;62.38
79129;BME280;68529;43.286;23.360;2023-07-16T04:36:56;99288.34;;;25.93;61.88
79129;BME280;68529;43.286;23.360;2023-07-16T04:39:21;99302.03;;;26.00;61.92
79129;BME280;68529;43.286;23.360;2023-07-16T04:41:47;99293.06;;;26.09;61.64
79129;BME280;68529;43.286;23.360;2023-07-16T04:44:12;99291.19;;;26.19;61.46
79129;BME280;68529;43.286;23.360;2023-07-16T04:46:38;99298.38;;;26.28;61.56
79129;BME280;68529;43.286;23.360;2023-07-16T04:49:04;99296.59;;;26.46;61.06
79129;BME280;68529;43.286;23.360;2023-07-16T04:51:30;99301.59;;;26.59;61.19
79129;BME280;68529;43.286;23.360;2023-07-16T04:53:55;99305.22;;;26.68;60.85
79129;BME280;68529;43.286;23.360;2023-07-16T04:56:21;99305.97;;;26.78;60.36
79129;BME280;68529;43.286;23.360;2023-07-16T04:58:46;99310.50;;;26.87;60.55
79129;BME280;68529;43.286;23.360;2023-07-16T05:01:12;99306.88;;;26.96;60.38
79129;BME280;68529;43.286;23.360;2023-07-16T05:03:37;99305.66;;;27.08;59.79
79129;BME280;68529;43.286;23.360;2023-07-16T05:06:03;99308.78;;;27.21;59.82
79129;BME280;68529;43.286;23.360;2023-07-16T05:08:29;99304.00;;;27.33;59.57
79129;BME280;68529;43.286;23.360;2023-07-16T05:10:54;99307.31;;;27.44;59.79
79129;BME280;68529;43.286;23.360;2023-07-16T05:13:20;99302.66;;;27.54;59.61
79129;BME280;68529;43.286;23.360;2023-07-16T05:15:45;99312.88;;;27.68;59.55
79129;BME280;68529;43.286;23.360;2023-07-16T05:18:11;99307.34;;;27.78;59.35
79129;BME280;68529;43.286;23.360;2023-07-16T05:20:36;99311.78;;;27.87;58.90
79129;BME280;68529;43.286;23.360;2023-07-16T05:23:02;99311.69;;;27.97;59.18
79129;BME280;68529;43.286;23.360;2023-07-16T05:25:27;99307.03;;;28.07;58.81
79129;BME280;68529;43.286;23.360;2023-07-16T05:27:53;99310.94;;;28.12;58.90
79129;BME280;68529;43.286;23.360;2023-07-16T05:30:18;99307.59;;;28.18;58.56
79129;BME280;68529;43.286;23.360;2023-07-16T05:32:44;99300.03;;;28.30;58.43
79129;BME280;68529;43.286;23.360;2023-07-16T05:35:09;99302.75;;;28.38;58.25
79129;BME280;68529;43.286;23.360;2023-07-16T05:37:35;99306.16;;;28.48;58.48
79129;BME280;68529;43.286;23.360;2023-07-16T05:40:00;99307.88;;;28.57;58.18
79129;BME280;68529;43.286;23.360;2023-07-16T05:42:25;99309.97;;;28.63;57.51
79129;BME280;68529;43.286;23.360;2023-07-16T05:44:51;99306.94;;;28.66;57.05
79129;BME280;68529;43.286;23.360;2023-07-16T05:47:16;99311.34;;;28.75;57.20
79129;BME280;68529;43.286;23.360;2023-07-16T05:49:42;99308.13;;;28.88;57.95
79129;BME280;68529;43.286;23.360;2023-07-16T05:52:07;99305.44;;;28.96;57.69
79129;BME280;68529;43.286;23.360;2023-07-16T05:54:33;99305.28;;;29.06;57.44
79129;BME280;68529;43.286;23.360;2023-07-16T05:56:59;99311.88;;;29.11;57.46
79129;BME280;68529;43.286;23.360;2023-07-16T05:59:25;99314.59;;;29.19;56.74
79129;BME280;68529;43.286;23.360;2023-07-16T06:01:51;99307.84;;;29.23;56.72
79129;BME280;68529;43.286;23.360;2023-07-16T06:04:16;99318.00;;;29.29;57.23
79129;BME280;68529;43.286;23.360;2023-07-16T06:06:41;99314.28;;;29.38;56.59
79129;BME280;68529;43.286;23.360;2023-07-16T06:09:07;99311.72;;;29.45;56.69
79129;BME280;68529;43.286;23.360;2023-07-16T06:11:32;99322.69;;;29.52;56.07
79129;BME280;68529;43.286;23.360;2023-07-16T06:13:57;99326.94;;;29.54;55.67
79129;BME280;68529;43.286;23.360;2023-07-16T06:16:23;99321.88;;;29.59;56.12
79129;BME280;68529;43.286;23.360;2023-07-16T06:18:48;99315.75;;;29.65;55.88
79129;BME280;68529;43.286;23.360;2023-07-16T06:21:14;99312.38;;;29.63;55.81
79129;BME280;68529;43.286;23.360;2023-07-16T06:23:39;99320.66;;;29.70;55.98
79129;BME280;68529;43.286;23.360;2023-07-16T06:26:05;99312.66;;;29.76;55.44
79129;BME280;68529;43.286;23.360;2023-07-16T06:28:35;99315.41;;;29.84;55.56
79129;BME280;68529;43.286;23.360;2023-07-16T06:31:01;99314.34;;;29.93;55.36
79129;BME280;68529;43.286;23.360;2023-07-16T06:33:26;99315.72;;;29.97;54.65
79129;BME280;68529;43.286;23.360;2023-07-16T06:35:53;99316.34;;;30.08;55.08
79129;BME280;68529;43.286;23.360;2023-07-16T06:38:18;99312.59;;;30.17;54.41
79129;BME280;68529;43.286;23.360;2023-07-16T06:40:48;99312.03;;;30.21;54.07
79129;BME280;68529;43.286;23.360;2023-07-16T06:43:14;99311.00;;;30.30;54.01
79129;BME280;68529;43.286;23.360;2023-07-16T06:45:39;99307.75;;;30.35;53.37
79129;BME280;68529;43.286;23.360;2023-07-16T06:48:05;99318.97;;;30.40;53.88
79129;BME280;68529;43.286;23.360;2023-07-16T06:50:30;99322.34;;;30.42;52.92
79129;BME280;68529;43.286;23.360;2023-07-16T06:52:56;99321.13;;;30.44;53.21
79129;BME280;68529;43.286;23.360;2023-07-16T06:55:21;99320.94;;;30.54;53.73
79129;BME280;68529;43.286;23.360;2023-07-16T06:57:46;99327.31;;;30.61;53.41
79129;BME280;68529;43.286;23.360;2023-07-16T07:00:12;99317.47;;;30.68;53.37
79129;BME280;68529;43.286;23.360;2023-07-16T07:02:37;99324.84;;;30.74;53.00
79129;BME280;68529;43.286;23.360;2023-07-16T07:05:03;99314.44;;;30.86;53.54
79129;BME280;68529;43.286;23.360;2023-07-16T07:07:28;99315.09;;;30.96;52.65
79129;BME280;68529;43.286;23.360;2023-07-16T07:09:53;99313.34;;;31.03;53.38
79129;BME280;68529;43.286;23.360;2023-07-16T07:12:19;99317.84;;;31.10;52.51
79129;BME280;68529;43.286;23.360;2023-07-16T07:14:46;99320.69;;;31.17;52.31
79129;BME280;68529;43.286;23.360;2023-07-16T07:17:11;99319.31;;;31.21;51.67
79129;BME280;68529;43.286;23.360;2023-07-16T07:19:37;99322.75;;;31.15;51.75
79129;BME280;68529;43.286;23.360;2023-07-16T07:22:02;99323.34;;;31.25;51.94
79129;BME280;68529;43.286;23.360;2023-07-16T07:24:28;99317.66;;;31.35;51.46
79129;BME280;68529;43.286;23.360;2023-07-16T07:26:53;99307.22;;;31.46;51.38
79129;BME280;68529;43.286;23.360;2023-07-16T07:29:19;99314.47;;;31.54;51.48
79129;BME280;68529;43.286;23.360;2023-07-16T07:31:44;99316.22;;;31.47;50.11
79129;BME280;68529;43.286;23.360;2023-07-16T07:34:09;99321.97;;;31.44;50.53
79129;BME280;68529;43.286;23.360;2023-07-16T07:36:35;99314.34;;;31.47;50.27
79129;BME280;68529;43.286;23.360;2023-07-16T07:39:00;99313.53;;;31.39;50.20
79129;BME280;68529;43.286;23.360;2023-07-16T07:41:25;99315.53;;;31.45;51.48
79129;BME280;68529;43.286;23.360;2023-07-16T07:43:51;99322.16;;;31.65;51.29
79129;BME280;68529;43.286;23.360;2023-07-16T07:46:16;99311.13;;;31.81;50.99
79129;BME280;68529;43.286;23.360;2023-07-16T07:48:42;99304.28;;;31.85;50.92
79129;BME280;68529;43.286;23.360;2023-07-16T07:51:07;99307.94;;;31.92;50.13
79129;BME280;68529;43.286;23.360;2023-07-16T07:53:33;99310.94;;;31.97;49.92
79129;BME280;68529;43.286;23.360;2023-07-16T07:55:58;99312.28;;;32.01;50.42
79129;BME280;68529;43.286;23.360;2023-07-16T07:58:24;99315.75;;;32.10;50.81
79129;BME280;68529;43.286;23.360;2023-07-16T08:00:49;99313.78;;;32.18;50.40
79129;BME280;68529;43.286;23.360;2023-07-16T08:03:15;99316.28;;;32.20;50.57
79129;BME280;68529;43.286;23.360;2023-07-16T08:05:40;99325.47;;;32.34;49.87
79129;BME280;68529;43.286;23.360;2023-07-16T08:08:05;99319.28;;;32.40;49.53
79129;BME280;68529;43.286;23.360;2023-07-16T08:10:31;99329.66;;;32.51;48.65
79129;BME280;68529;43.286;23.360;2023-07-16T08:12:56;99324.59;;;32.48;49.47
79129;BME280;68529;43.286;23.360;2023-07-16T08:15:22;99323.19;;;32.52;48.73
79129;BME280;68529;43.286;23.360;2023-07-16T08:17:47;99323.69;;;32.55;49.03
79129;BME280;68529;43.286;23.360;2023-07-16T08:20:13;99331.84;;;32.55;49.20
79129;BME280;68529;43.286;23.360;2023-07-16T08:22:38;99317.78;;;32.66;48.25
79129;BME280;68529;43.286;23.360;2023-07-16T08:25:05;99322.34;;;32.66;49.42
79129;BME280;68529;43.286;23.360;2023-07-16T08:27:30;99327.09;;;32.78;48.90
79129;BME280;68529;43.286;23.360;2023-07-16T08:29:56;99326.59;;;32.90;49.04
79129;BME280;68529;43.286;23.360;2023-07-16T08:32:22;99329.38;;;32.96;48.61
79129;BME280;68529;43.286;23.360;2023-07-16T08:34:47;99322.78;;;33.05;47.67
79129;BME280;68529;43.286;23.360;2023-07-16T08:37:13;99334.59;;;33.12;48.22
79129;BME280;68529;43.286;23.360;2023-07-16T08:39:39;99321.78;;;33.27;47.79
79129;BME280;68529;43.286;23.360;2023-07-16T08:42:05;99317.34;;;33.26;46.80
79129;BME280;68529;43.286;23.360;2023-07-16T08:44:30;99326.56;;;33.25;46.53
79129;BME280;68529;43.286;23.360;2023-07-16T08:46:56;99315.53;;;33.33;46.20
79129;BME280;68529;43.286;23.360;2023-07-16T08:49:22;99313.41;;;33.29;47.00
79129;BME280;68529;43.286;23.360;2023-07-16T08:51:50;99315.28;;;33.28;47.69
79129;BME280;68529;43.286;23.360;2023-07-16T08:54:17;99315.97;;;33.37;47.15
79129;BME280;68529;43.286;23.360;2023-07-16T08:56:47;99309.56;;;33.45;46.85
79129;BME280;68529;43.286;23.360;2023-07-16T08:59:14;99312.97;;;33.53;46.94
79129;BME280;68529;43.286;23.360;2023-07-16T09:01:40;99312.94;;;33.47;46.42
79129;BME280;68529;43.286;23.360;2023-07-16T09:04:05;99307.16;;;33.35;45.75
79129;BME280;68529;43.286;23.360;2023-07-16T09:06:31;99311.28;;;33.24;46.47
79129;BME280;68529;43.286;23.360;2023-07-16T09:08:56;99306.69;;;33.25;46.38
79129;BME280;68529;43.286;23.360;2023-07-16T09:11:22;99311.31;;;33.31;46.37
79129;BME280;68529;43.286;23.360;2023-07-16T09:13:50;99308.19;;;33.34;45.12
79129;BME280;68529;43.286;23.360;2023-07-16T09:16:19;99314.56;;;33.20;45.02
79129;BME280;68529;43.286;23.360;2023-07-16T09:18:46;99318.78;;;33.22;45.42
79129;BME280;68529;43.286;23.360;2023-07-16T09:21:11;99308.06;;;33.42;47.17
79129;BME280;68529;43.286;23.360;2023-07-16T09:23:37;99313.75;;;33.68;45.08
79129;BME280;68529;43.286;23.360;2023-07-16T09:26:03;99313.53;;;33.70;44.33
79129;BME280;68529;43.286;23.360;2023-07-16T09:28:30;99307.28;;;33.69;44.39
79129;BME280;68529;43.286;23.360;2023-07-16T09:31:02;99311.72;;;33.77;46.04
79129;BME280;68529;43.286;23.360;2023-07-16T09:33:28;99301.94;;;33.89;45.99
79129;BME280;68529;43.286;23.360;2023-07-16T09:35:54;99310.28;;;33.81;45.29
79129;BME280;68529;43.286;23.360;2023-07-16T09:38:20;99303.63;;;33.90;45.03
79129;BME280;68529;43.286;23.360;2023-07-16T09:40:45;99309.56;;;34.00;44.14
79129;BME280;68529;43.286;23.360;2023-07-16T09:43:12;99305.59;;;34.03;44.08
79129;BME280;68529;43.286;23.360;2023-07-16T09:45:38;99310.44;;;34.07;44.39
79129;BME280;68529;43.286;23.360;2023-07-16T09:48:04;99306.38;;;34.24;44.59
79129;BME280;68529;43.286;23.360;2023-07-16T09:50:33;99311.88;;;34.37;43.70
79129;BME280;68529;43.286;23.360;2023-07-16T09:52:59;99304.09;;;34.34;43.66
79129;BME280;68529;43.286;23.360;2023-07-16T09:55:25;99300.38;;;34.48;43.49
79129;BME280;68529;43.286;23.360;2023-07-16T09:57:56;99304.44;;;34.59;42.30
79129;BME280;68529;43.286;23.360;2023-07-16T10:00:23;99302.97;;;34.63;43.50
79129;BME280;68529;43.286;23.360;2023-07-16T10:02:51;99299.44;;;34.69;42.91
79129;BME280;68529;43.286;23.360;2023-07-16T10:05:38;99296.47;;;34.71;42.70
79129;BME280;68529;43.286;23.360;2023-07-16T10:08:03;99297.56;;;34.83;43.14
79129;BME280;68529;43.286;23.360;2023-07-16T10:10:46;99299.88;;;34.73;42.10
79129;BME280;68529;43.286;23.360;2023-07-16T10:13:16;99291.91;;;34.78;42.39
79129;BME280;68529;43.286;23.360;2023-07-16T10:15:55;99297.16;;;34.86;42.63
79129;BME280;68529;43.286;23.360;2023-07-16T10:18:28;99286.25;;;34.99;41.81
79129;BME280;68529;43.286;23.360;2023-07-16T10:21:06;99291.72;;;34.92;41.42
79129;BME280;68529;43.286;23.360;2023-07-16T10:23:43;99287.53;;;35.03;42.10
79129;BME280;68529;43.286;23.360;2023-07-16T10:26:13;99280.88;;;35.12;41.66
79129;BME280;68529;43.286;23.360;2023-07-16T10:28:39;99284.59;;;35.04;42.50
79129;BME280;68529;43.286;23.360;2023-07-16T10:31:06;99288.56;;;35.02;42.37
79129;BME280;68529;43.286;23.360;2023-07-16T10:33:42;99283.13;;;35.02;42.60
79129;BME280;68529;43.286;23.360;2023-07-16T10:36:07;99292.59;;;35.06;42.66
79129;BME280;68529;43.286;23.360;2023-07-16T10:38:40;99279.38;;;35.16;43.42
79129;BME280;68529;43.286;23.360;2023-07-16T10:41:07;99283.38;;;35.20;42.09
79129;BME280;68529;43.286;23.360;2023-07-16T10:43:32;99278.75;;;35.27;42.15
79129;BME280;68529;43.286;23.360;2023-07-16T10:45:58;99281.50;;;35.34;42.32
79129;BME280;68529;43.286;23.360;2023-07-16T10:48:26;99283.38;;;35.33;40.23
79129;BME280;68529;43.286;23.360;2023-07-16T10:50:53;99280.44;;;35.22;42.11
79129;BME280;68529;43.286;23.360;2023-07-16T10:53:19;99289.25;;;35.30;41.16
79129;BME280;68529;43.286;23.360;2023-07-16T10:55:44;99281.72;;;35.26;40.16
79129;BME280;68529;43.286;23.360;2023-07-16T10:58:10;99278.34;;;35.17;40.13
79129;BME280;68529;43.286;23.360;2023-07-16T11:00:39;99272.44;;;35.14;42.54
79129;BME280;68529;43.286;23.360;2023-07-16T11:03:05;99273.50;;;35.26;41.02
79129;BME280;68529;43.286;23.360;2023-07-16T11:05:31;99274.78;;;35.23;41.40
79129;BME280;68529;43.286;23.360;2023-07-16T11:07:56;99272.44;;;35.33;40.18
79129;BME280;68529;43.286;23.360;2023-07-16T11:10:23;99269.72;;;35.33;40.84
79129;BME280;68529;43.286;23.360;2023-07-16T11:12:53;99264.66;;;35.43;40.87
79129;BME280;68529;43.286;23.360;2023-07-16T11:15:18;99264.47;;;35.38;40.07
79129;BME280;68529;43.286;23.360;2023-07-16T11:17:55;99256.47;;;35.30;40.17
79129;BME280;68529;43.286;23.360;2023-07-16T11:20:21;99262.38;;;35.14;39.70
79129;BME280;68529;43.286;23.360;2023-07-16T11:22:47;99262.16;;;35.09;40.88
79129;BME280;68529;43.286;23.360;2023-07-16T11:25:13;99255.41;;;35.18;41.21
79129;BME280;68529;43.286;23.360;2023-07-16T11:27:41;99250.59;;;35.33;40.95
79129;BME280;68529;43.286;23.360;2023-07-16T11:30:07;99249.94;;;35.38;39.84
79129;BME280;68529;43.286;23.360;2023-07-16T11:32:45;99251.84;;;35.31;40.66
79129;BME280;68529;43.286;23.360;2023-07-16T11:35:18;99252.50;;;35.39;41.34
79129;BME280;68529;43.286;23.360;2023-07-16T11:37:45;99251.41;;;35.47;40.37
79129;BME280;68529;43.286;23.360;2023-07-16T11:40:15;99245.53;;;35.43;40.56
79129;BME280;68529;43.286;23.360;2023-07-16T11:42:41;99244.06;;;35.47;41.43
79129;BME280;68529;43.286;23.360;2023-07-16T11:45:24;99230.81;;;35.44;40.29
79129;BME280;68529;43.286;23.360;2023-07-16T11:47:52;99241.56;;;35.39;40.04
79129;BME280;68529;43.286;23.360;2023-07-16T11:50:18;99232.09;;;35.22;39.70
79129;BME280;68529;43.286;23.360;2023-07-16T11:52:55;99240.72;;;35.13;40.58
79129;BME280;68529;43.286;23.360;2023-07-16T11:55:21;99246.81;;;35.15;40.32
79129;BME280;68529;43.286;23.360;2023-07-16T11:57:47;99242.84;;;35.17;41.08
79129;BME280;68529;43.286;23.360;2023-07-16T12:00:12;99247.03;;;35.20;40.91
79129;BME280;68529;43.286;23.360;2023-07-16T12:02:38;99242.19;;;35.08;39.82
79129;BME280;68529;43.286;23.360;2023-07-16T12:05:03;99244.47;;;35.05;40.05
79129;BME280;68529;43.286;23.360;2023-07-16T12:07:34;99244.00;;;34.82;40.28
79129;BME280;68529;43.286;23.360;2023-07-16T12:10:00;99250.53;;;34.87;40.89
79129;BME280;68529;43.286;23.360;2023-07-16T12:12:25;99244.44;;;34.98;40.17
79129;BME280;68529;43.286;23.360;2023-07-16T12:14:51;99244.88;;;34.95;40.03
79129;BME280;68529;43.286;23.360;2023-07-16T12:17:16;99250.56;;;34.94;40.01
79129;BME280;68529;43.286;23.360;2023-07-16T12:19:42;99245.72;;;35.02;40.48
79129;BME280;68529;43.286;23.360;2023-07-16T12:22:08;99236.72;;;35.15;39.94
79129;BME280;68529;43.286;23.360;2023-07-16T12:24:34;99239.03;;;35.18;40.98
79129;BME280;68529;43.286;23.360;2023-07-16T12:26:59;99237.97;;;35.13;41.11
79129;BME280;68529;43.286;23.360;2023-07-16T12:29:25;99229.59;;;35.14;39.63
79129;BME280;68529;43.286;23.360;2023-07-16T12:31:50;99237.56;;;35.16;41.19
79129;BME280;68529;43.286;23.360;2023-07-16T12:34:15;99240.94;;;35.18;41.14
79129;BME280;68529;43.286;23.360;2023-07-16T12:36:41;99232.75;;;35.18;40.50
79129;BME280;68529;43.286;23.360;2023-07-16T12:39:24;99230.03;;;35.18;40.67
79129;BME280;68529;43.286;23.360;2023-07-16T12:41:51;99231.69;;;35.12;40.98
79129;BME280;68529;43.286;23.360;2023-07-16T12:44:19;99230.84;;;35.18;41.15
79129;BME280;68529;43.286;23.360;2023-07-16T12:46:45;99228.13;;;35.25;41.34
79129;BME280;68529;43.286;23.360;2023-07-16T12:49:11;99227.50;;;35.23;40.85